createdAt,value
2018-05-31T00:00:47.035Z,34.55
2018-05-31T00:01:47.092Z,34.65
2018-05-31T00:02:47.058Z,34.53
2018-05-31T00:03:47.050Z,34.55
2018-05-31T00:04:47.077Z,34.92
2018-05-31T00:05:47.181Z,34.53
2018-05-31T00:06:47.029Z,34.82
2018-05-31T00:07:47.047Z,34.92
2018-05-31T00:08:46.997Z,34.73
2018-05-31T00:09:47.008Z,34.73
2018-05-31T00:10:47.832Z,35.11
2018-05-31T00:11:47.004Z,35.30
2018-05-31T00:12:47.039Z,35.02
2018-05-31T00:13:47.009Z,35.21
2018-05-31T00:14:46.908Z,35.40
2018-05-31T00:15:46.929Z,35.21
2018-05-31T00:16:47.007Z,35.40
2018-05-31T00:17:46.908Z,35.11
2018-05-31T00:18:46.869Z,35.21
2018-05-31T00:19:46.968Z,35.30
2018-05-31T00:20:46.971Z,35.59
2018-05-31T00:21:46.927Z,35.69
2018-05-31T00:22:47.869Z,35.69
2018-05-31T00:23:46.920Z,35.59
2018-05-31T00:24:46.953Z,35.40
2018-05-31T00:25:46.854Z,35.69
2018-05-31T00:26:46.859Z,35.49
2018-05-31T00:27:46.856Z,35.78
2018-05-31T00:28:46.944Z,35.88
2018-05-31T00:29:46.850Z,35.86
2018-05-31T00:30:46.814Z,36.15
2018-05-31T00:31:46.920Z,36.24
2018-05-31T00:32:46.828Z,36.34
2018-05-31T00:33:46.815Z,36.15
2018-05-31T00:34:46.765Z,36.34
2018-05-31T00:35:46.765Z,36.34
2018-05-31T00:36:46.844Z,36.24
2018-05-31T00:37:46.700Z,36.44
2018-05-31T00:38:46.767Z,36.34
2018-05-31T00:39:46.717Z,36.24
2018-05-31T00:40:47.399Z,36.34
2018-05-31T00:41:46.798Z,36.53
2018-05-31T00:42:46.721Z,36.53
2018-05-31T00:43:46.660Z,36.44
2018-05-31T00:44:46.689Z,36.44
2018-05-31T00:45:46.759Z,36.34
2018-05-31T00:46:46.766Z,36.53
2018-05-31T00:47:46.734Z,36.63
2018-05-31T00:48:46.646Z,36.82
2018-05-31T00:49:46.720Z,36.72
2018-05-31T00:50:46.655Z,36.91
2018-05-31T00:51:46.771Z,36.82
2018-05-31T00:52:46.633Z,36.91
2018-05-31T00:53:46.672Z,36.91
2018-05-31T00:54:46.669Z,36.91
2018-05-31T00:55:46.779Z,37.01
2018-05-31T00:56:46.576Z,36.91
2018-05-31T00:57:46.542Z,37.18
2018-05-31T00:58:46.642Z,37.11
2018-05-31T00:59:46.542Z,37.18
2018-05-31T01:00:46.566Z,37.47
2018-05-31T01:01:46.631Z,37.28
2018-05-31T01:02:46.692Z,37.47
2018-05-31T01:03:46.536Z,37.28
2018-05-31T01:04:46.560Z,37.28
2018-05-31T01:05:46.565Z,37.28
2018-05-31T01:06:46.526Z,37.66
2018-05-31T01:07:47.327Z,37.57
2018-05-31T01:08:46.490Z,36.90
2018-05-31T01:09:46.459Z,37.28
2018-05-31T01:10:46.483Z,36.99
2018-05-31T01:11:46.507Z,37.09
2018-05-31T01:12:46.509Z,37.18
2018-05-31T01:13:46.538Z,37.18
2018-05-31T01:14:46.385Z,37.09
2018-05-31T01:15:46.429Z,37.28
2018-05-31T01:16:46.416Z,37.09
2018-05-31T01:17:46.371Z,37.66
2018-05-31T01:18:46.471Z,37.38
2018-05-31T01:19:46.463Z,37.57
2018-05-31T01:20:53.780Z,37.57
2018-05-31T01:21:46.376Z,37.57
2018-05-31T01:22:46.399Z,37.47
2018-05-31T01:23:46.294Z,37.47
2018-05-31T01:24:46.261Z,37.57
2018-05-31T01:25:46.311Z,37.47
2018-05-31T01:26:46.250Z,37.66
2018-05-31T01:27:46.358Z,37.85
2018-05-31T01:28:46.292Z,37.76
2018-05-31T01:29:46.822Z,37.85
2018-05-31T01:30:46.277Z,37.76
2018-05-31T01:31:46.223Z,37.66
2018-05-31T01:32:46.275Z,37.85
2018-05-31T01:33:46.225Z,37.85
2018-05-31T01:34:46.199Z,37.66
2018-05-31T01:35:46.181Z,37.76
2018-05-31T01:36:46.205Z,37.76
2018-05-31T01:37:46.146Z,37.76
2018-05-31T01:38:46.927Z,37.57
2018-05-31T01:39:46.183Z,37.76
2018-05-31T01:40:46.173Z,37.76
2018-05-31T01:41:46.147Z,37.76
2018-05-31T01:42:46.174Z,37.66
2018-05-31T01:43:46.135Z,37.66
2018-05-31T01:44:46.167Z,37.57
2018-05-31T01:45:46.105Z,37.38
2018-05-31T01:46:46.167Z,37.76
2018-05-31T01:47:46.092Z,37.66
2018-05-31T01:48:46.085Z,37.38
2018-05-31T01:49:46.095Z,37.47
2018-05-31T01:50:46.030Z,37.66
2018-05-31T01:51:46.074Z,37.47
2018-05-31T01:52:46.028Z,37.76
2018-05-31T01:53:46.057Z,37.28
2018-05-31T01:54:46.084Z,37.47
2018-05-31T01:55:46.071Z,37.66
2018-05-31T01:56:45.973Z,37.85
2018-05-31T01:57:46.993Z,37.28
2018-05-31T01:58:45.981Z,37.76
2018-05-31T01:59:45.967Z,37.09
2018-05-31T02:00:46.033Z,37.85
2018-05-31T02:01:45.949Z,37.40
2018-05-31T02:02:46.049Z,37.49
2018-05-31T02:03:45.994Z,37.40
2018-05-31T02:04:45.987Z,37.11
2018-05-31T02:05:45.953Z,37.20
2018-05-31T02:06:45.867Z,37.20
2018-05-31T02:07:45.889Z,37.20
2018-05-31T02:08:46.907Z,37.11
2018-05-31T02:09:45.982Z,37.20
2018-05-31T02:10:45.871Z,37.11
2018-05-31T02:11:48.923Z,37.20
2018-05-31T02:12:46.058Z,37.20
2018-05-31T02:13:45.857Z,37.11
2018-05-31T02:14:45.903Z,37.40
2018-05-31T02:15:45.856Z,37.20
2018-05-31T02:16:45.804Z,37.40
2018-05-31T02:17:45.829Z,37.22
2018-05-31T02:18:45.906Z,37.32
2018-05-31T02:19:45.813Z,37.03
2018-05-31T02:20:45.804Z,37.22
2018-05-31T02:21:45.777Z,37.13
2018-05-31T02:22:45.740Z,37.03
2018-05-31T02:23:45.776Z,36.84
2018-05-31T02:24:45.771Z,36.36
2018-05-31T02:25:45.862Z,37.13
2018-05-31T02:26:45.834Z,36.55
2018-05-31T02:27:45.732Z,36.55
2018-05-31T02:28:45.833Z,36.26
2018-05-31T02:29:45.766Z,36.16
2018-05-31T02:30:45.705Z,35.88
2018-05-31T02:31:45.692Z,35.80
2018-05-31T02:32:45.830Z,35.89
2018-05-31T02:33:45.660Z,35.80
2018-05-31T02:34:46.447Z,35.61
2018-05-31T02:35:45.668Z,35.80
2018-05-31T02:36:45.648Z,35.61
2018-05-31T02:37:45.684Z,35.51
2018-05-31T02:38:45.654Z,35.71
2018-05-31T02:39:45.651Z,35.51
2018-05-31T02:40:45.694Z,35.71
2018-05-31T02:41:45.682Z,35.32
2018-05-31T02:42:45.645Z,35.43
2018-05-31T02:43:45.577Z,35.24
2018-05-31T02:44:45.594Z,35.24
2018-05-31T02:45:45.542Z,35.43
2018-05-31T02:46:45.611Z,35.43
2018-05-31T02:47:45.571Z,35.24
2018-05-31T02:48:45.543Z,35.05
2018-05-31T02:49:45.503Z,35.05
2018-05-31T02:50:45.574Z,35.05
2018-05-31T02:51:45.532Z,34.95
2018-05-31T02:52:45.562Z,34.95
2018-05-31T02:53:45.725Z,34.86
2018-05-31T02:54:45.517Z,34.95
2018-05-31T02:55:45.517Z,34.67
2018-05-31T02:56:45.423Z,34.67
2018-05-31T02:57:45.517Z,34.38
2018-05-31T02:58:45.411Z,34.57
2018-05-31T02:59:45.543Z,34.57
2018-05-31T03:00:46.484Z,34.76
2018-05-31T03:01:45.420Z,34.09
2018-05-31T03:02:45.420Z,33.91
2018-05-31T03:03:45.460Z,33.72
2018-05-31T03:04:45.381Z,33.72
2018-05-31T03:05:45.438Z,33.72
2018-05-31T03:06:45.384Z,33.91
2018-05-31T03:07:45.391Z,33.72
2018-05-31T03:08:46.877Z,33.62
2018-05-31T03:09:45.382Z,33.82
2018-05-31T03:10:52.901Z,33.72
2018-05-31T03:12:38.399Z,33.72
2018-05-31T03:13:38.256Z,33.62
2018-05-31T03:15:31.546Z,33.62
2018-05-31T03:16:31.610Z,33.72
2018-05-31T03:18:25.485Z,33.34
2018-05-31T03:19:24.877Z,33.53
2018-05-31T03:20:24.902Z,33.15
2018-05-31T03:21:24.905Z,33.24
2018-05-31T03:22:24.896Z,33.26
2018-05-31T03:23:24.810Z,33.15
2018-05-31T03:24:24.831Z,33.16
2018-05-31T03:25:24.807Z,33.26
2018-05-31T03:26:24.896Z,33.26
2018-05-31T03:27:25.358Z,33.07
2018-05-31T03:28:24.844Z,32.87
2018-05-31T03:29:24.948Z,32.87
2018-05-31T03:30:24.986Z,32.49
2018-05-31T03:31:24.818Z,32.87
2018-05-31T03:32:24.785Z,32.30
2018-05-31T03:33:24.976Z,32.10
2018-05-31T03:34:24.820Z,31.82
2018-05-31T03:35:24.966Z,31.62
2018-05-31T03:36:24.734Z,31.72
2018-05-31T03:37:24.779Z,31.43
2018-05-31T03:38:25.714Z,31.26
2018-05-31T03:39:24.852Z,31.35
2018-05-31T03:40:24.978Z,30.87
2018-05-31T03:41:25.663Z,30.77
2018-05-31T03:42:24.646Z,30.97
2018-05-31T03:43:24.854Z,30.97
2018-05-31T03:44:24.802Z,30.87
2018-05-31T03:45:24.668Z,30.87
2018-05-31T03:46:25.525Z,30.58
2018-05-31T03:47:24.655Z,30.68
2018-05-31T03:48:24.671Z,30.58
2018-05-31T03:49:24.705Z,30.58
2018-05-31T03:50:24.661Z,30.19
2018-05-31T03:51:24.632Z,30.19
2018-05-31T03:52:24.818Z,30.10
2018-05-31T03:53:24.594Z,29.81
2018-05-31T03:54:24.641Z,29.14
2018-05-31T03:55:24.580Z,29.04
2018-05-31T03:56:24.652Z,28.96
2018-05-31T03:57:24.816Z,28.67
2018-05-31T03:58:24.589Z,28.77
2018-05-31T03:59:24.613Z,28.67
2018-05-31T04:00:24.532Z,28.67
2018-05-31T04:01:24.845Z,28.48
2018-05-31T04:02:24.527Z,28.67
2018-05-31T04:03:24.541Z,28.29
2018-05-31T04:04:24.492Z,28.00
2018-05-31T04:05:24.538Z,28.09
2018-05-31T04:06:24.508Z,28.19
2018-05-31T04:07:24.436Z,28.19
2018-05-31T04:08:24.446Z,28.29
2018-05-31T04:09:24.461Z,28.09
2018-05-31T04:10:24.409Z,27.91
2018-05-31T04:11:24.433Z,28.00
2018-05-31T04:12:26.160Z,27.91
2018-05-31T04:13:24.463Z,28.00
2018-05-31T04:14:24.453Z,27.91
2018-05-31T04:15:24.385Z,27.91
2018-05-31T04:16:25.012Z,27.81
2018-05-31T04:17:24.377Z,27.42
2018-05-31T04:18:27.014Z,27.53
2018-05-31T04:19:24.562Z,27.82
2018-05-31T04:20:24.391Z,27.24
2018-05-31T04:21:24.378Z,26.95
2018-05-31T04:22:24.354Z,27.05
2018-05-31T04:23:24.336Z,26.86
2018-05-31T04:24:25.087Z,27.05
2018-05-31T04:25:24.503Z,26.95
2018-05-31T04:26:24.301Z,26.86
2018-05-31T04:27:24.405Z,26.95
2018-05-31T04:28:24.369Z,27.05
2018-05-31T04:29:24.498Z,27.15
2018-05-31T04:30:24.304Z,27.15
2018-05-31T04:31:24.271Z,27.13
2018-05-31T04:32:24.273Z,27.23
2018-05-31T04:33:24.254Z,27.13
2018-05-31T04:34:24.326Z,27.04
2018-05-31T04:35:24.298Z,27.05
2018-05-31T04:36:24.350Z,27.15
2018-05-31T04:37:24.365Z,26.95
2018-05-31T04:38:24.333Z,26.86
2018-05-31T04:39:24.230Z,26.57
2018-05-31T04:40:24.310Z,26.67
2018-05-31T04:41:24.233Z,26.57
2018-05-31T04:42:24.354Z,26.48
2018-05-31T04:43:25.061Z,25.90
2018-05-31T04:44:24.215Z,25.81
2018-05-31T04:45:25.363Z,25.81
2018-05-31T04:46:24.254Z,25.81
2018-05-31T04:47:24.273Z,25.62
2018-05-31T04:48:24.293Z,25.71
2018-05-31T04:49:24.294Z,25.71
2018-05-31T04:50:24.126Z,25.91
2018-05-31T04:51:24.123Z,25.62
2018-05-31T04:52:24.289Z,25.71
2018-05-31T04:53:24.103Z,25.81
2018-05-31T04:54:24.097Z,25.62
2018-05-31T04:55:24.466Z,25.43
2018-05-31T04:56:24.401Z,25.33
2018-05-31T04:57:24.100Z,25.33
2018-05-31T04:58:24.327Z,25.34
2018-05-31T04:59:24.090Z,25.24
2018-05-31T05:00:24.250Z,25.24
2018-05-31T05:01:24.022Z,25.15
2018-05-31T05:02:24.002Z,24.96
2018-05-31T05:03:24.083Z,24.86
2018-05-31T05:04:24.019Z,24.96
2018-05-31T05:05:24.121Z,24.96
2018-05-31T05:06:24.025Z,24.96
2018-05-31T05:07:24.041Z,24.96
2018-05-31T05:08:24.061Z,24.67
2018-05-31T05:09:24.010Z,24.76
2018-05-31T05:10:23.953Z,24.67
2018-05-31T05:11:23.941Z,24.57
2018-05-31T05:12:24.048Z,24.57
2018-05-31T05:13:24.001Z,24.67
2018-05-31T05:14:24.004Z,24.57
2018-05-31T05:15:23.987Z,24.48
2018-05-31T05:16:24.092Z,24.48
2018-05-31T05:17:23.873Z,24.48
2018-05-31T05:18:25.080Z,24.48
2018-05-31T05:19:23.905Z,24.38
2018-05-31T05:20:23.869Z,24.48
2018-05-31T05:21:23.964Z,24.19
2018-05-31T05:22:23.864Z,23.80
2018-05-31T05:23:24.032Z,23.71
2018-05-31T05:24:23.922Z,23.81
2018-05-31T05:25:23.825Z,24.01
2018-05-31T05:26:24.066Z,23.81
2018-05-31T05:27:23.878Z,23.52
2018-05-31T05:28:23.824Z,23.24
2018-05-31T05:29:23.928Z,23.33
2018-05-31T05:30:23.987Z,23.04
2018-05-31T05:31:23.912Z,23.15
2018-05-31T05:32:23.773Z,23.15
2018-05-31T05:33:23.806Z,23.05
2018-05-31T05:34:23.963Z,23.24
2018-05-31T05:35:23.810Z,23.15
2018-05-31T05:36:23.767Z,23.15
2018-05-31T05:37:23.873Z,23.05
2018-05-31T05:38:23.868Z,23.15
2018-05-31T05:39:23.761Z,23.24
2018-05-31T05:40:23.822Z,23.15
2018-05-31T05:41:24.640Z,23.05
2018-05-31T05:42:23.785Z,23.15
2018-05-31T05:43:23.811Z,23.24
2018-05-31T05:44:23.816Z,23.24
2018-05-31T05:45:31.450Z,22.96
2018-05-31T05:47:17.161Z,22.28
2018-05-31T05:48:17.044Z,22.28
2018-05-31T05:50:10.524Z,22.38
2018-05-31T05:51:10.595Z,22.19
2018-05-31T05:53:17.090Z,22.76
2018-05-31T05:54:16.005Z,22.19
2018-05-31T05:56:09.457Z,22.39
2018-05-31T05:57:09.746Z,22.28
2018-05-31T05:59:02.950Z,21.91
2018-05-31T06:00:02.611Z,22.10
2018-05-31T06:01:56.429Z,22.19
2018-05-31T06:02:56.244Z,22.10
2018-05-31T06:04:50.101Z,22.19
2018-05-31T06:05:50.284Z,22.00
2018-05-31T06:07:43.481Z,21.81
2018-05-31T06:10:37.080Z,22.39
2018-05-31T06:11:37.196Z,22.29
2018-05-31T06:13:31.056Z,22.20
2018-05-31T06:14:30.637Z,21.72
2018-05-31T06:16:23.507Z,21.53
2018-05-31T06:17:23.514Z,21.62
2018-05-31T06:19:16.762Z,21.14
2018-05-31T06:20:16.985Z,21.24
2018-05-31T06:21:16.713Z,21.24
2018-05-31T06:22:16.775Z,21.04
2018-05-31T06:23:16.720Z,21.14
2018-05-31T06:24:16.799Z,21.14
2018-05-31T06:25:16.714Z,21.82
2018-05-31T06:26:16.791Z,21.82
2018-05-31T06:27:16.913Z,21.82
2018-05-31T06:28:16.710Z,21.72
2018-05-31T06:29:16.865Z,21.82
2018-05-31T06:30:17.349Z,21.73
2018-05-31T06:31:16.700Z,21.83
2018-05-31T06:32:16.732Z,21.83
2018-05-31T06:33:16.701Z,21.35
2018-05-31T06:34:16.728Z,21.44
2018-05-31T06:35:16.613Z,21.15
2018-05-31T06:36:16.731Z,21.54
2018-05-31T06:37:16.822Z,21.54
2018-05-31T06:38:17.293Z,21.64
2018-05-31T06:39:16.786Z,21.06
2018-05-31T06:40:16.630Z,21.07
2018-05-31T06:41:16.817Z,21.07
2018-05-31T06:42:16.682Z,21.26
2018-05-31T06:43:16.588Z,20.87
2018-05-31T06:44:16.584Z,20.78
2018-05-31T06:45:16.582Z,20.69
2018-05-31T06:46:16.736Z,21.08
2018-05-31T06:47:16.543Z,20.79
2018-05-31T06:48:16.672Z,20.31
2018-05-31T06:49:16.546Z,20.41
2018-05-31T06:50:16.540Z,20.12
2018-05-31T06:51:16.669Z,19.84
2018-05-31T06:52:16.573Z,19.84
2018-05-31T06:53:16.569Z,19.26
2018-05-31T06:54:16.620Z,19.46
2018-05-31T06:55:16.776Z,18.79
2018-05-31T06:56:16.610Z,18.69
2018-05-31T06:57:16.495Z,18.89
2018-05-31T06:58:16.541Z,18.41
2018-05-31T06:59:16.642Z,17.93
2018-05-31T07:00:16.547Z,17.46
2018-05-31T07:01:16.663Z,17.46
2018-05-31T07:02:16.496Z,17.56
2018-05-31T07:03:16.819Z,17.08
2018-05-31T07:04:16.449Z,16.41
2018-05-31T07:05:16.458Z,16.02
2018-05-31T07:06:17.360Z,15.83
2018-05-31T07:07:16.852Z,16.03
2018-05-31T07:08:17.254Z,15.94
2018-05-31T07:09:16.520Z,15.55
2018-05-31T07:10:16.634Z,15.65
2018-05-31T07:11:17.297Z,15.85
2018-05-31T07:12:16.478Z,15.18
2018-05-31T07:13:16.466Z,14.89
2018-05-31T07:14:16.519Z,15.09
2018-05-31T07:15:16.494Z,14.81
2018-05-31T07:16:16.511Z,14.72
2018-05-31T07:17:16.479Z,14.43
2018-05-31T07:18:16.731Z,14.34
2018-05-31T07:19:16.652Z,13.95
2018-05-31T07:20:16.476Z,13.87
2018-05-31T07:21:16.565Z,13.48
2018-05-31T07:22:16.475Z,13.19
2018-05-31T07:23:16.495Z,12.99
2018-05-31T07:24:16.675Z,12.21
2018-05-31T07:25:16.542Z,12.32
2018-05-31T07:26:16.472Z,11.73
2018-05-31T07:27:16.521Z,11.74
2018-05-31T07:28:16.469Z,11.83
2018-05-31T07:29:16.562Z,11.65
2018-05-31T07:30:16.546Z,11.46
2018-05-31T07:31:16.556Z,11.07
2018-05-31T07:32:16.587Z,10.97
2018-05-31T07:33:16.955Z,10.98
2018-05-31T07:34:16.445Z,10.78
2018-05-31T07:35:16.690Z,10.11
2018-05-31T07:36:16.646Z,10.01
2018-05-31T07:37:17.004Z,9.53
2018-05-31T07:38:16.848Z,9.33
2018-05-31T07:39:16.393Z,8.84
2018-05-31T07:40:16.398Z,9.05
2018-05-31T07:41:16.492Z,8.75
2018-05-31T07:42:16.649Z,8.76
2018-05-31T07:43:16.475Z,8.66
2018-05-31T07:44:16.628Z,8.37
2018-05-31T07:45:16.525Z,7.59
2018-05-31T07:46:16.502Z,7.69
2018-05-31T07:47:16.650Z,7.30
2018-05-31T07:48:16.463Z,7.01
2018-05-31T07:49:16.455Z,7.21
2018-05-31T07:50:16.472Z,6.62
2018-05-31T07:51:16.476Z,6.23
2018-05-31T07:52:16.510Z,5.73
2018-05-31T07:53:16.470Z,6.13
2018-05-31T07:54:16.504Z,5.83
2018-05-31T07:55:16.389Z,5.44
2018-05-31T07:56:16.460Z,5.25
2018-05-31T07:57:16.713Z,4.96
2018-05-31T07:58:16.642Z,5.16
2018-05-31T07:59:16.485Z,4.27
2018-05-31T08:00:16.502Z,4.27
2018-05-31T08:01:16.640Z,3.97
2018-05-31T08:02:16.688Z,4.17
2018-05-31T08:03:16.428Z,3.98
2018-05-31T08:04:16.477Z,3.58
2018-05-31T08:05:16.604Z,3.28
2018-05-31T08:06:17.117Z,3.19
2018-05-31T08:07:16.800Z,2.89
2018-05-31T08:08:16.506Z,2.79
2018-05-31T08:09:16.528Z,2.39
2018-05-31T08:10:16.584Z,2.59
2018-05-31T08:11:17.932Z,2.19
2018-05-31T08:12:16.641Z,2.20
2018-05-31T08:13:16.574Z,1.90
2018-05-31T08:14:16.814Z,2.10
2018-05-31T08:15:16.612Z,2.00
2018-05-31T08:16:16.725Z,1.60
2018-05-31T08:17:17.111Z,1.20
2018-05-31T08:18:16.759Z,1.40
2018-05-31T08:19:16.598Z,1.30
2018-05-31T08:20:16.551Z,1.20
2018-05-31T08:21:16.566Z,1.20
2018-05-31T08:22:16.565Z,1.00
2018-05-31T08:23:16.573Z,1.00
2018-05-31T08:24:16.686Z,1.20
2018-05-31T08:25:16.938Z,0.60
2018-05-31T08:26:16.608Z,0.90
2018-05-31T08:27:16.681Z,0.60
2018-05-31T08:28:16.727Z,0.30
2018-05-31T08:29:16.629Z,0.40
2018-05-31T08:30:16.589Z,0.00
2018-05-31T08:31:16.693Z,0.10
2018-05-31T08:32:16.624Z,0.20
2018-05-31T08:33:16.685Z,0.10
2018-05-31T08:34:16.728Z,0.00
2018-05-31T08:35:16.632Z,0.00
2018-05-31T08:36:16.676Z,0.00
2018-05-31T08:37:16.653Z,0.00
2018-05-31T08:38:16.890Z,0.00
2018-05-31T08:39:16.708Z,0.00
2018-05-31T08:40:16.683Z,0.00
2018-05-31T08:41:16.757Z,0.00
2018-05-31T08:42:16.767Z,0.00
2018-05-31T08:43:16.916Z,0.00
2018-05-31T08:44:16.779Z,0.00
2018-05-31T08:45:16.705Z,0.00
2018-05-31T08:46:16.755Z,0.00
2018-05-31T08:47:16.708Z,0.00
2018-05-31T08:48:16.747Z,0.00
2018-05-31T08:49:16.824Z,0.00
2018-05-31T08:50:16.811Z,0.00
2018-05-31T08:51:17.364Z,0.00
2018-05-31T08:52:16.856Z,0.00
2018-05-31T08:53:17.393Z,0.00
2018-05-31T08:54:16.773Z,0.00
2018-05-31T08:55:16.891Z,0.00
2018-05-31T08:56:16.824Z,0.00
2018-05-31T08:57:16.807Z,0.00
2018-05-31T08:58:16.883Z,0.00
2018-05-31T08:59:16.983Z,0.00
2018-05-31T09:00:16.949Z,0.00
2018-05-31T09:01:16.981Z,0.00
2018-05-31T09:02:16.989Z,0.00
2018-05-31T09:03:16.953Z,0.00
2018-05-31T09:04:16.926Z,0.00
2018-05-31T09:05:17.278Z,0.00
2018-05-31T09:06:16.947Z,0.00
2018-05-31T09:07:17.044Z,0.00
2018-05-31T09:08:16.935Z,0.00
2018-05-31T09:09:17.031Z,0.00
2018-05-31T09:11:17.260Z,0.00
2018-05-31T09:12:17.062Z,0.00
2018-05-31T09:13:17.015Z,0.00
2018-05-31T09:14:17.057Z,0.00
2018-05-31T09:15:17.081Z,0.00
2018-05-31T09:16:17.058Z,0.00
2018-05-31T09:17:17.065Z,0.00
2018-05-31T09:18:17.070Z,0.00
2018-05-31T09:19:17.066Z,0.00
2018-05-31T09:20:17.112Z,0.00
2018-05-31T09:21:17.083Z,0.00
2018-05-31T09:22:17.091Z,0.00
2018-05-31T09:23:17.142Z,0.00
2018-05-31T09:24:17.160Z,0.00
2018-05-31T09:25:17.137Z,0.00
2018-05-31T09:26:17.147Z,0.00
2018-05-31T09:27:17.166Z,0.00
2018-05-31T09:28:17.172Z,0.00
2018-05-31T09:29:17.202Z,0.00
2018-05-31T09:30:17.206Z,0.00
2018-05-31T09:31:17.202Z,0.00
2018-05-31T09:32:17.267Z,0.00
2018-05-31T09:33:17.359Z,0.00
2018-05-31T09:34:17.350Z,0.00
2018-05-31T09:35:17.266Z,0.00
2018-05-31T09:36:17.450Z,0.00
2018-05-31T09:37:17.300Z,0.00
2018-05-31T09:38:17.324Z,0.00
2018-05-31T09:39:17.356Z,0.00
2018-05-31T09:40:17.382Z,0.00
2018-05-31T09:41:17.379Z,0.00
2018-05-31T09:42:17.456Z,0.00
2018-05-31T09:43:17.382Z,0.00
2018-05-31T09:44:17.387Z,0.00
2018-05-31T09:45:17.409Z,0.00
2018-05-31T09:46:17.417Z,0.00
2018-05-31T09:47:17.429Z,0.00
2018-05-31T09:48:17.478Z,0.00
2018-05-31T09:49:17.445Z,0.00
2018-05-31T09:50:17.637Z,0.00
2018-05-31T09:51:17.479Z,0.00
2018-05-31T09:52:17.498Z,0.00
2018-05-31T09:53:17.537Z,0.00
2018-05-31T09:54:17.560Z,0.00
2018-05-31T09:55:17.522Z,0.00
2018-05-31T09:56:17.561Z,0.00
2018-05-31T09:57:17.639Z,0.00
2018-05-31T09:58:17.601Z,0.00
2018-05-31T09:59:17.634Z,0.00
2018-05-31T10:00:17.685Z,0.00
2018-05-31T10:01:17.652Z,0.00
2018-05-31T10:02:17.620Z,0.00
2018-05-31T10:03:17.669Z,0.00
2018-05-31T10:04:17.765Z,0.00
2018-05-31T10:05:17.673Z,0.00
2018-05-31T10:06:17.677Z,0.00
2018-05-31T10:07:17.706Z,0.00
2018-05-31T10:08:17.747Z,0.00
2018-05-31T10:09:17.769Z,0.00
2018-05-31T10:10:17.936Z,0.00
2018-05-31T10:11:17.826Z,0.00
2018-05-31T10:12:17.899Z,0.00
2018-05-31T10:13:17.867Z,0.00
2018-05-31T10:14:17.824Z,0.00
2018-05-31T10:15:17.904Z,0.00
2018-05-31T10:16:17.850Z,0.00
2018-05-31T10:17:17.868Z,0.00
2018-05-31T10:18:17.939Z,0.00
2018-05-31T10:19:17.904Z,0.00
2018-05-31T10:20:17.889Z,0.00
2018-05-31T10:21:18.114Z,0.00
2018-05-31T10:22:19.931Z,0.00
2018-05-31T10:23:19.400Z,0.00
2018-05-31T10:25:59.572Z,0.00
2018-05-31T10:27:06.944Z,0.00
2018-05-31T10:28:52.198Z,0.00
2018-05-31T10:29:52.421Z,0.00
2018-05-31T10:49:16.097Z,0.00
2018-05-31T10:50:16.538Z,0.00
2018-05-31T10:52:11.816Z,0.00
2018-05-31T10:54:49.655Z,0.00
2018-05-31T10:59:57.372Z,0.00
2018-05-31T11:00:56.475Z,0.00
2018-05-31T11:01:56.510Z,0.00
2018-05-31T11:02:56.541Z,0.00
2018-05-31T11:03:56.512Z,0.00
2018-05-31T11:04:56.513Z,0.00
2018-05-31T11:05:56.528Z,0.00
2018-05-31T11:06:56.562Z,0.00
2018-05-31T11:07:56.607Z,0.00
2018-05-31T11:08:56.582Z,0.00
2018-05-31T11:09:56.761Z,0.00
2018-05-31T11:10:56.662Z,0.00
2018-05-31T11:11:56.625Z,0.00
2018-05-31T11:12:56.658Z,0.00
2018-05-31T11:13:56.687Z,0.00
2018-05-31T11:14:56.763Z,0.00
2018-05-31T11:15:56.695Z,0.00
2018-05-31T11:16:56.815Z,0.00
2018-05-31T11:17:56.815Z,0.00
2018-05-31T11:18:56.749Z,0.00
2018-05-31T11:19:56.785Z,0.00
2018-05-31T11:20:56.880Z,0.00
2018-05-31T11:21:56.853Z,0.00
2018-05-31T11:22:56.822Z,0.00
2018-05-31T11:23:56.835Z,0.00
2018-05-31T11:25:04.568Z,0.00
2018-05-31T11:26:50.251Z,0.00
2018-05-31T11:27:50.241Z,0.00
2018-05-31T11:29:43.248Z,0.00
2018-05-31T11:30:43.214Z,0.00
2018-05-31T11:32:36.166Z,0.00
2018-05-31T11:33:36.145Z,0.00
2018-05-31T11:35:29.049Z,0.00
2018-05-31T11:36:29.071Z,0.00
2018-05-31T11:38:22.563Z,0.00
2018-05-31T11:39:22.529Z,0.00
2018-05-31T11:41:15.430Z,0.00
2018-05-31T11:42:15.551Z,0.00
2018-05-31T11:44:08.369Z,0.00
2018-05-31T11:45:08.372Z,0.00
2018-05-31T11:47:01.768Z,0.00
2018-05-31T11:48:01.852Z,0.00
2018-05-31T11:49:55.225Z,0.00
2018-05-31T11:50:55.204Z,0.00
2018-05-31T11:52:48.072Z,0.00
2018-05-31T11:53:48.143Z,0.00
2018-05-31T11:55:41.529Z,0.00
2018-05-31T11:56:41.513Z,0.00
2018-05-31T11:58:34.902Z,0.00
2018-05-31T11:59:34.924Z,0.00
2018-05-31T12:00:34.976Z,0.00
2018-05-31T12:01:34.991Z,0.00
2018-05-31T12:02:34.953Z,0.00
2018-05-31T12:03:35.041Z,0.00
2018-05-31T12:04:35.024Z,0.00
2018-05-31T12:05:35.020Z,0.00
2018-05-31T12:06:35.020Z,0.00
2018-05-31T12:07:35.087Z,0.00
2018-05-31T12:08:35.076Z,0.00
2018-05-31T12:09:35.387Z,0.00
2018-05-31T12:10:35.098Z,0.00
2018-05-31T12:11:35.170Z,0.00
2018-05-31T12:12:35.135Z,0.00
2018-05-31T12:13:35.154Z,0.00
2018-05-31T12:14:35.173Z,0.00
2018-05-31T12:15:35.209Z,0.00
2018-05-31T12:16:35.214Z,0.00
2018-05-31T12:17:35.265Z,0.00
2018-05-31T12:18:35.215Z,0.00
2018-05-31T12:19:35.239Z,0.00
2018-05-31T12:20:35.247Z,0.00
2018-05-31T12:21:35.259Z,0.00
2018-05-31T12:22:35.281Z,0.00
2018-05-31T12:23:35.313Z,0.00
2018-05-31T12:24:35.437Z,0.00
2018-05-31T12:25:35.357Z,0.00
2018-05-31T12:26:35.393Z,0.00
2018-05-31T12:27:35.386Z,0.00
2018-05-31T12:28:36.057Z,0.00
2018-05-31T12:29:35.408Z,0.00
2018-05-31T12:30:35.404Z,0.00
2018-05-31T12:31:35.363Z,0.00
2018-05-31T12:32:35.423Z,0.00
2018-05-31T12:33:35.431Z,0.00
2018-05-31T12:34:35.482Z,0.00
2018-05-31T12:35:35.423Z,0.00
2018-05-31T12:36:35.423Z,0.00
2018-05-31T12:37:35.613Z,0.00
2018-05-31T12:38:36.079Z,0.00
2018-05-31T12:39:35.482Z,0.00
2018-05-31T12:40:35.479Z,0.00
2018-05-31T12:41:35.510Z,0.00
2018-05-31T12:42:35.552Z,0.00
2018-05-31T12:43:35.540Z,0.00
2018-05-31T12:44:35.566Z,0.00
2018-05-31T12:45:35.571Z,0.00
2018-05-31T12:46:35.618Z,0.00
2018-05-31T12:47:35.626Z,0.00
2018-05-31T12:48:35.599Z,0.00
2018-05-31T12:49:35.562Z,0.00
2018-05-31T12:50:35.766Z,0.00
2018-05-31T12:51:35.621Z,0.00
2018-05-31T12:52:35.701Z,0.00
2018-05-31T12:53:35.666Z,0.00
2018-05-31T12:54:35.713Z,0.00
2018-05-31T12:55:35.673Z,0.10
2018-05-31T12:56:35.786Z,0.10
2018-05-31T12:57:35.709Z,0.30
2018-05-31T12:58:35.702Z,0.30
2018-05-31T12:59:36.624Z,0.40
2018-05-31T13:00:35.746Z,0.30
2018-05-31T13:01:35.683Z,0.30
2018-05-31T13:02:35.698Z,0.30
2018-05-31T13:03:35.772Z,0.30
2018-05-31T13:04:35.736Z,0.60
2018-05-31T13:05:35.709Z,0.30
2018-05-31T13:06:35.845Z,0.40
2018-05-31T13:07:35.744Z,0.30
2018-05-31T13:08:35.738Z,0.30
2018-05-31T13:09:35.804Z,0.40
2018-05-31T13:10:35.794Z,0.40
2018-05-31T13:11:35.756Z,0.30
2018-05-31T13:12:35.938Z,0.20
2018-05-31T13:13:35.814Z,0.50
2018-05-31T13:14:35.884Z,0.30
2018-05-31T13:15:35.797Z,0.50
2018-05-31T13:16:35.809Z,0.90
2018-05-31T13:17:35.822Z,0.60
2018-05-31T13:18:35.870Z,0.40
2018-05-31T13:19:35.872Z,0.70
2018-05-31T13:20:35.921Z,0.80
2018-05-31T13:21:35.849Z,1.00
2018-05-31T13:22:35.920Z,0.90
2018-05-31T13:23:35.909Z,0.40
2018-05-31T13:24:36.038Z,0.50
2018-05-31T13:25:35.939Z,0.40
2018-05-31T13:26:36.237Z,0.10
2018-05-31T13:27:35.932Z,0.10
2018-05-31T13:28:35.901Z,0.30
2018-05-31T13:29:36.708Z,0.20
2018-05-31T13:30:36.005Z,0.50
2018-05-31T13:31:35.966Z,0.30
2018-05-31T13:32:36.034Z,0.50
2018-05-31T13:33:35.988Z,0.60
2018-05-31T13:34:36.095Z,0.80
2018-05-31T13:35:36.055Z,0.40
2018-05-31T13:36:36.065Z,0.40
2018-05-31T13:37:36.140Z,0.80
2018-05-31T13:38:36.050Z,1.00
2018-05-31T13:39:36.160Z,0.60
2018-05-31T13:40:36.170Z,0.40
2018-05-31T13:41:36.055Z,0.40
2018-05-31T13:42:36.111Z,0.80
2018-05-31T13:43:36.160Z,0.60
2018-05-31T13:44:36.130Z,0.60
2018-05-31T13:45:36.127Z,0.90
2018-05-31T13:46:36.273Z,0.80
2018-05-31T13:47:36.379Z,0.80
2018-05-31T13:48:36.242Z,0.80
2018-05-31T13:49:36.185Z,0.80
2018-05-31T13:50:36.356Z,1.00
2018-05-31T13:51:36.138Z,1.30
2018-05-31T13:52:36.122Z,1.30
2018-05-31T13:53:36.160Z,1.40
2018-05-31T13:54:36.166Z,1.40
2018-05-31T13:55:36.258Z,1.70
2018-05-31T13:56:36.160Z,1.20
2018-05-31T13:57:36.181Z,1.40